Time;durP1;ratioP1;P1;durP2;ratioP2;P2;SDS_P1;SDS_P2;PMS_P1;PMS_P2;Temp;Humidity;BMP_temperature;BMP_pressure;BME280_temperature;BME280_humidity;BME280_pressure;Samples;Min_cycle;Max_cycle;Signal;HPM_P1;HPM_P2
2021/06/16 00:00:54;;;;;;;10.70;9.70;;;18.60;99.90;;;;;;5094539;28;20206;-64
2021/06/16 00:03:22;;;;;;;13.18;10.50;;;18.70;99.90;;;;;;5094187;28;20231;-65
2021/06/16 00:05:50;;;;;;;11.77;10.68;;;18.60;99.90;;;;;;5094578;28;20200;-65
2021/06/16 00:08:17;;;;;;;10.75;9.75;;;18.70;99.90;;;;;;5094329;28;20655;-66
2021/06/16 00:10:45;;;;;;;12.25;10.98;;;18.60;99.90;;;;;;5094285;28;20227;-64
2021/06/16 00:13:13;;;;;;;9.95;9.05;;;18.60;99.90;;;;;;5094411;28;20295;-65
2021/06/16 00:15:43;;;;;;;11.43;9.75;;;18.60;99.90;;;;;;5094422;28;20198;-64
2021/06/16 00:18:12;;;;;;;11.35;10.18;;;18.60;99.90;;;;;;5079441;28;20283;-65
2021/06/16 00:20:40;;;;;;;11.88;10.70;;;18.70;99.90;;;;;;5074077;28;20207;-65
2021/06/16 00:23:08;;;;;;;13.90;10.00;;;18.80;99.90;;;;;;5073775;28;20207;-65
2021/06/16 00:25:36;;;;;;;9.77;8.88;;;18.70;99.90;;;;;;5073607;28;20662;-65
2021/06/16 00:28:05;;;;;;;11.40;10.27;;;18.60;99.90;;;;;;5073269;28;20254;-66
2021/06/16 00:30:33;;;;;;;12.05;10.73;;;18.60;99.90;;;;;;5073435;28;20672;-65
2021/06/16 00:33:01;;;;;;;10.82;9.77;;;18.50;99.90;;;;;;5073442;28;20201;-65
2021/06/16 00:35:30;;;;;;;10.43;9.43;;;18.50;99.90;;;;;;5073178;28;20200;-65
2021/06/16 00:37:59;;;;;;;10.98;10.00;;;18.50;99.90;;;;;;5073372;28;20201;-65
2021/06/16 00:40:29;;;;;;;10.80;9.75;;;18.50;99.90;;;;;;5073566;28;20207;-65
2021/06/16 00:42:58;;;;;;;11.30;10.27;;;18.50;99.90;;;;;;5073462;28;20284;-64
2021/06/16 00:45:26;;;;;;;10.60;9.60;;;18.50;99.90;;;;;;5073400;28;20296;-64
2021/06/16 00:47:55;;;;;;;10.80;9.70;;;18.50;99.90;;;;;;5073253;28;20292;-65
2021/06/16 00:50:24;;;;;;;10.55;9.45;;;18.50;99.90;;;;;;5073422;28;20204;-66
2021/06/16 00:52:53;;;;;;;10.13;9.13;;;18.50;99.90;;;;;;5073165;28;20236;-65
2021/06/16 00:55:21;;;;;;;9.75;8.95;;;18.50;99.90;;;;;;5073331;28;20207;-64
2021/06/16 00:57:49;;;;;;;12.48;10.02;;;18.50;99.90;;;;;;5073087;28;20201;-65
2021/06/16 01:00:20;;;;;;;11.27;10.18;;;18.50;99.90;;;;;;5072651;28;20200;-65
2021/06/16 01:02:53;;;;;;;10.82;9.77;;;18.40;99.90;;;;;;5072870;28;20731;-64
2021/06/16 01:05:22;;;;;;;11.13;10.02;;;18.40;99.90;;;;;;5073147;28;20525;-66
2021/06/16 01:07:58;;;;;;;11.60;10.60;;;18.40;99.90;;;;;;5072454;28;20249;-65
2021/06/16 01:10:34;;;;;;;10.85;9.85;;;18.40;99.90;;;;;;5072876;28;20319;-65
2021/06/16 01:13:09;;;;;;;12.20;10.70;;;18.30;99.90;;;;;;5072710;28;20181;-65
2021/06/16 01:15:48;;;;;;;11.27;10.18;;;18.30;99.90;;;;;;5073036;28;20684;-66
2021/06/16 01:18:20;;;;;;;11.35;10.18;;;18.20;99.90;;;;;;5087900;28;20205;-65
2021/06/16 01:20:50;;;;;;;12.50;11.20;;;18.20;99.90;;;;;;5093449;28;20275;-65
2021/06/16 01:23:55;;;;;;;12.43;10.80;;;18.20;99.90;;;;;;5092923;28;20188;-65
2021/06/16 01:26:29;;;;;;;12.00;10.80;;;18.20;99.90;;;;;;5092812;28;20206;-65
2021/06/16 01:29:02;;;;;;;11.95;10.85;;;18.10;99.90;;;;;;5092734;28;20251;-65
2021/06/16 01:31:32;;;;;;;11.82;10.75;;;18.10;99.90;;;;;;5092731;28;20648;-65
2021/06/16 01:34:02;;;;;;;12.05;10.90;;;18.10;99.90;;;;;;5092786;28;20192;-65
2021/06/16 01:36:30;;;;;;;11.60;10.57;;;18.10;99.90;;;;;;5092739;28;20200;-65
2021/06/16 01:38:58;;;;;;;14.38;11.80;;;18.10;99.90;;;;;;5092344;28;20647;-65
2021/06/16 01:41:28;;;;;;;12.82;11.63;;;18.10;99.90;;;;;;5092257;28;20234;-65
2021/06/16 01:43:56;;;;;;;12.02;10.90;;;18.10;99.90;;;;;;5092410;28;20199;-65
2021/06/16 01:46:26;;;;;;;13.55;11.50;;;18.10;99.90;;;;;;5092253;28;20196;-65
2021/06/16 01:48:55;;;;;;;11.73;10.63;;;18.00;99.90;;;;;;5092305;28;20273;-65
2021/06/16 01:51:25;;;;;;;12.48;11.27;;;18.00;99.90;;;;;;5092674;28;20698;-65
2021/06/16 01:53:55;;;;;;;13.35;12.00;;;18.00;99.90;;;;;;5092835;28;20232;-65
2021/06/16 01:56:23;;;;;;;13.85;12.30;;;17.90;99.90;;;;;;5092878;28;20196;-64
2021/06/16 01:58:54;;;;;;;14.10;12.70;;;18.00;99.90;;;;;;5092962;28;20282;-64
2021/06/16 02:01:24;;;;;;;14.45;12.95;;;17.90;99.90;;;;;;5092699;28;20628;-65
2021/06/16 02:03:54;;;;;;;14.00;11.88;;;17.90;99.90;;;;;;5092931;28;20184;-65
2021/06/16 02:06:25;;;;;;;14.02;12.65;;;17.90;99.90;;;;;;5093176;28;20195;-65
2021/06/16 02:08:54;;;;;;;14.07;12.35;;;17.80;99.90;;;;;;5092182;28;20208;-65
2021/06/16 02:11:24;;;;;;;14.18;12.68;;;17.80;99.90;;;;;;5092393;28;20257;-65
2021/06/16 02:13:57;;;;;;;13.90;12.55;;;17.80;99.90;;;;;;5092448;28;20565;-66
2021/06/16 02:16:32;;;;;;;14.23;12.82;;;17.80;99.90;;;;;;5092446;28;20492;-64
2021/06/16 02:19:06;;;;;;;14.63;13.23;;;17.80;99.90;;;;;;5051513;28;20194;-64
2021/06/16 02:21:34;;;;;;;14.85;13.45;;;17.80;99.90;;;;;;5052516;28;20268;-65
2021/06/16 02:24:02;;;;;;;14.40;13.13;;;17.80;99.90;;;;;;5052390;28;20284;-64
2021/06/16 02:26:30;;;;;;;14.40;13.02;;;17.70;99.90;;;;;;5052347;28;20220;-64
2021/06/16 02:28:59;;;;;;;14.82;13.43;;;17.70;99.90;;;;;;5052136;28;20697;-64
2021/06/16 02:31:27;;;;;;;14.55;13.25;;;17.70;99.90;;;;;;5052063;28;20296;-65
2021/06/16 02:33:55;;;;;;;15.60;14.27;;;17.70;99.90;;;;;;5052287;28;20657;-65
2021/06/16 02:36:24;;;;;;;15.45;13.82;;;17.60;99.90;;;;;;5052375;28;20202;-65
2021/06/16 02:38:57;;;;;;;15.85;14.10;;;17.70;99.90;;;;;;5052124;28;20751;-64
2021/06/16 02:41:26;;;;;;;15.75;14.25;;;17.60;99.90;;;;;;5051939;28;20292;-65
2021/06/16 02:43:56;;;;;;;16.27;14.57;;;17.60;99.90;;;;;;5052056;28;20216;-65
2021/06/16 02:46:27;;;;;;;16.55;15.07;;;17.60;99.90;;;;;;5052428;28;20284;-65
2021/06/16 02:48:55;;;;;;;17.38;15.52;;;17.60;99.90;;;;;;5051886;28;20189;-64
2021/06/16 02:51:24;;;;;;;18.10;16.20;;;17.60;99.90;;;;;;5052321;28;20643;-65
2021/06/16 02:53:52;;;;;;;17.80;15.93;;;17.70;99.90;;;;;;5051836;28;20198;-64
2021/06/16 02:56:22;;;;;;;17.55;15.70;;;17.70;99.90;;;;;;5051809;28;20680;-64
2021/06/16 02:58:52;;;;;;;18.00;16.30;;;17.60;99.90;;;;;;5051794;28;20539;-65
2021/06/16 03:01:21;;;;;;;18.20;16.50;;;17.60;99.90;;;;;;5051885;28;20240;-65
2021/06/16 03:03:52;;;;;;;18.20;16.27;;;17.60;99.90;;;;;;5051743;28;20211;-65
2021/06/16 03:06:22;;;;;;;19.17;17.17;;;17.50;99.90;;;;;;5051842;28;20205;-64
2021/06/16 03:08:55;;;;;;;17.83;16.08;;;17.60;99.90;;;;;;5051934;28;20202;-65
2021/06/16 03:11:23;;;;;;;18.98;16.38;;;17.60;99.90;;;;;;5051970;28;20267;-65
2021/06/16 03:13:51;;;;;;;18.65;16.73;;;17.60;99.90;;;;;;5051681;28;20197;-65
2021/06/16 03:16:20;;;;;;;19.42;17.52;;;17.60;99.90;;;;;;5051755;28;20216;-65
2021/06/16 03:18:50;;;;;;;19.23;17.23;;;17.60;99.90;;;;;;5090690;28;20200;-65
2021/06/16 03:21:19;;;;;;;20.50;18.42;;;17.60;99.90;;;;;;5091726;28;20223;-64
2021/06/16 03:23:49;;;;;;;19.98;18.08;;;17.50;99.90;;;;;;5091863;28;20226;-64
2021/06/16 03:26:18;;;;;;;19.00;17.13;;;17.50;99.90;;;;;;5091593;28;20844;-64
2021/06/16 03:28:47;;;;;;;19.88;17.23;;;17.50;99.90;;;;;;5092176;28;20365;-65
2021/06/16 03:31:15;;;;;;;20.75;18.58;;;17.50;99.90;;;;;;5095524;28;20310;-64
2021/06/16 03:33:45;;;;;;;20.27;18.08;;;17.50;99.90;;;;;;5096077;28;20200;-64
2021/06/16 03:36:14;;;;;;;20.52;18.48;;;17.60;99.90;;;;;;5096128;28;20533;-65
2021/06/16 03:38:43;;;;;;;20.90;18.77;;;17.60;99.90;;;;;;5096045;28;20200;-64
2021/06/16 03:41:12;;;;;;;21.95;19.70;;;17.60;99.90;;;;;;5095956;28;20295;-65
2021/06/16 03:43:42;;;;;;;20.05;18.20;;;17.60;99.90;;;;;;5095477;28;20754;-65
2021/06/16 03:46:11;;;;;;;20.92;18.70;;;17.60;99.90;;;;;;5095509;28;20204;-65
2021/06/16 03:48:41;;;;;;;21.13;19.02;;;17.60;99.90;;;;;;5095970;28;20227;-65
2021/06/16 03:51:09;;;;;;;20.98;18.17;;;17.60;99.90;;;;;;5095742;28;20230;-64
2021/06/16 03:53:39;;;;;;;20.25;18.25;;;17.70;99.90;;;;;;5081883;28;20287;-64
2021/06/16 03:56:07;;;;;;;21.90;19.60;;;17.70;99.90;;;;;;5075322;28;20215;-64
2021/06/16 03:58:36;;;;;;;21.17;18.90;;;17.70;99.90;;;;;;5075378;28;20204;-65
2021/06/16 04:01:04;;;;;;;19.63;17.58;;;17.80;99.90;;;;;;5075087;28;20297;-65
2021/06/16 04:03:33;;;;;;;20.77;18.52;;;17.90;99.90;;;;;;5074859;28;20216;-65
2021/06/16 04:06:01;;;;;;;20.20;18.20;;;17.80;99.90;;;;;;5074555;28;20197;-66
2021/06/16 04:08:29;;;;;;;20.20;18.00;;;17.90;99.90;;;;;;5074544;28;20276;-65
2021/06/16 04:10:59;;;;;;;19.73;17.77;;;18.00;99.90;;;;;;5074183;28;20298;-65
2021/06/16 04:13:26;;;;;;;21.13;18.48;;;18.10;99.90;;;;;;5074941;28;20197;-65
2021/06/16 04:15:55;;;;;;;21.52;18.02;;;18.20;99.90;;;;;;5074349;28;20205;-65
2021/06/16 04:18:23;;;;;;;20.02;17.98;;;18.30;99.90;;;;;;5084608;28;20228;-65
2021/06/16 04:20:55;;;;;;;19.52;17.60;;;18.40;99.90;;;;;;5072170;28;20215;-65
2021/06/16 04:23:22;;;;;;;20.85;18.55;;;18.50;99.90;;;;;;5074142;28;20193;-65
2021/06/16 04:25:50;;;;;;;20.77;18.63;;;18.60;99.90;;;;;;5071512;28;20196;-66
2021/06/16 04:28:19;;;;;;;18.60;16.63;;;18.60;99.90;;;;;;5073722;28;20217;-65
2021/06/16 04:30:47;;;;;;;18.80;16.98;;;18.60;99.90;;;;;;5074046;28;20220;-65
2021/06/16 04:33:15;;;;;;;20.00;17.48;;;18.70;99.90;;;;;;5074033;28;20200;-66
2021/06/16 04:35:43;;;;;;;25.17;19.13;;;18.80;99.90;;;;;;5073571;28;20219;-65
2021/06/16 04:38:11;;;;;;;18.65;16.75;;;18.90;99.90;;;;;;5074198;28;20203;-66
2021/06/16 04:40:39;;;;;;;18.48;16.67;;;19.00;99.90;;;;;;5074362;28;20608;-66
2021/06/16 04:43:06;;;;;;;18.85;16.95;;;19.10;99.90;;;;;;5073449;28;20205;-65
2021/06/16 04:45:36;;;;;;;18.15;16.45;;;19.20;99.90;;;;;;5073954;28;20299;-65
2021/06/16 04:48:04;;;;;;;19.63;17.10;;;19.30;99.90;;;;;;5074016;28;20224;-65
2021/06/16 04:50:32;;;;;;;19.25;17.35;;;19.40;99.90;;;;;;5073701;28;20698;-65
2021/06/16 04:53:00;;;;;;;18.05;16.20;;;19.80;99.90;;;;;;5073112;28;20200;-65
2021/06/16 04:55:28;;;;;;;17.90;16.05;;;20.50;99.90;;;;;;5073817;28;20200;-65
2021/06/16 04:57:56;;;;;;;18.85;16.27;;;21.20;99.90;;;;;;5073356;28;20197;-66
2021/06/16 05:00:24;;;;;;;15.65;14.18;;;21.60;99.90;;;;;;5073768;28;20300;-66
2021/06/16 05:02:55;;;;;;;16.63;14.93;;;22.00;99.90;;;;;;5073483;28;20300;-66
2021/06/16 05:05:23;;;;;;;16.38;14.68;;;22.60;99.90;;;;;;5073664;28;20185;-66
2021/06/16 05:07:51;;;;;;;18.33;15.05;;;23.00;99.90;;;;;;5073258;28;20291;-65
2021/06/16 05:10:19;;;;;;;18.33;16.35;;;23.60;99.90;;;;;;5072696;28;20602;-66
2021/06/16 05:12:47;;;;;;;16.15;13.98;;;23.80;99.90;;;;;;5073007;28;20192;-66
2021/06/16 05:15:16;;;;;;;17.00;15.20;;;23.80;99.90;;;;;;5073029;28;20231;-66
2021/06/16 05:17:44;;;;;;;16.85;14.82;;;24.10;99.90;;;;;;5074241;28;20283;-67
2021/06/16 05:20:15;;;;;;;15.40;13.90;;;24.40;99.90;;;;;;5073272;28;20206;-66
2021/06/16 05:22:46;;;;;;;15.43;13.82;;;24.80;99.90;;;;;;5072644;28;20219;-65
2021/06/16 05:25:15;;;;;;;18.02;14.90;;;25.50;99.90;;;;;;5070654;28;20193;-65
2021/06/16 05:27:43;;;;;;;15.07;13.55;;;26.10;99.90;;;;;;5053462;28;20245;-66
2021/06/16 05:30:13;;;;;;;13.88;12.50;;;26.10;99.90;;;;;;5050190;28;20267;-65
2021/06/16 05:32:41;;;;;;;15.88;14.18;;;26.30;99.90;;;;;;5050271;28;20499;-64
2021/06/16 05:35:10;;;;;;;14.63;13.00;;;26.40;99.90;;;;;;5058384;28;20299;-64
2021/06/16 05:37:39;;;;;;;15.75;14.23;;;26.20;99.90;;;;;;5077724;28;20216;-66
2021/06/16 05:40:08;;;;;;;15.85;14.25;;;25.90;99.90;;;;;;5084031;28;20236;-63
2021/06/16 05:42:37;;;;;;;16.25;14.63;;;25.10;99.90;;;;;;5069712;28;20571;-64
2021/06/16 05:45:06;;;;;;;16.25;14.63;;;24.60;99.90;;;;;;5081525;28;20287;-63
2021/06/16 05:47:34;;;;;;;15.70;14.27;;;24.00;99.90;;;;;;5090152;28;20196;-63
2021/06/16 05:50:03;;;;;;;16.20;14.70;;;23.50;99.90;;;;;;5090162;28;20322;-68
2021/06/16 05:52:31;;;;;;;15.25;13.82;;;23.20;99.90;;;;;;5087355;28;20559;-68
2021/06/16 05:55:00;;;;;;;16.60;14.98;;;23.00;99.90;;;;;;5069453;28;20205;-67
2021/06/16 05:57:28;;;;;;;18.02;16.23;;;22.90;99.90;;;;;;5069349;28;20292;-65
2021/06/16 05:59:56;;;;;;;18.73;15.77;;;22.70;99.90;;;;;;5069618;28;20555;-68
2021/06/16 06:02:24;;;;;;;18.30;16.60;;;22.40;99.90;;;;;;5070080;28;20201;-76
2021/06/16 06:04:51;;;;;;;18.38;15.35;;;22.20;99.90;;;;;;5070581;28;20346;-74
2021/06/16 06:07:20;;;;;;;16.20;14.70;;;21.90;99.90;;;;;;5070168;28;20200;-75
2021/06/16 06:09:48;;;;;;;19.15;16.30;;;21.80;99.90;;;;;;5074533;28;20196;-66
2021/06/16 06:12:18;;;;;;;19.75;16.92;;;21.80;99.90;;;;;;5089688;28;20218;-67
2021/06/16 06:14:46;;;;;;;19.05;17.15;;;21.60;99.90;;;;;;5089949;28;20287;-68
2021/06/16 06:17:14;;;;;;;19.45;17.42;;;21.70;99.90;;;;;;5089964;28;20204;-68
2021/06/16 06:19:42;;;;;;;18.83;16.92;;;21.70;99.90;;;;;;5077523;28;20212;-65
2021/06/16 06:22:09;;;;;;;19.13;17.15;;;21.60;99.90;;;;;;5069190;28;20721;-64
2021/06/16 06:24:37;;;;;;;18.63;16.67;;;21.60;99.90;;;;;;5069460;28;20200;-63
2021/06/16 06:27:07;;;;;;;19.10;17.30;;;21.60;99.90;;;;;;5068336;28;20200;-63
2021/06/16 06:29:36;;;;;;;19.15;16.70;;;21.70;99.90;;;;;;5069176;28;20836;-75
2021/06/16 06:32:04;;;;;;;19.55;17.70;;;21.80;99.90;;;;;;5069448;28;20221;-73
2021/06/16 06:34:32;;;;;;;17.48;15.77;;;21.80;99.90;;;;;;5069373;28;20205;-71
2021/06/16 06:37:00;;;;;;;16.45;14.75;;;21.90;99.90;;;;;;5069138;28;20734;-73
2021/06/16 06:39:29;;;;;;;19.02;17.02;;;22.30;99.90;;;;;;5069335;28;20206;-66
2021/06/16 06:41:57;;;;;;;18.42;16.42;;;22.70;99.90;;;;;;5069329;28;20398;-65
2021/06/16 06:44:25;;;;;;;19.67;17.05;;;23.10;99.90;;;;;;5077400;28;20659;-65
2021/06/16 06:46:54;;;;;;;18.63;16.75;;;23.10;99.90;;;;;;5089460;28;20283;-64
2021/06/16 06:49:22;;;;;;;18.50;16.77;;;23.10;99.90;;;;;;5089451;28;20612;-65
2021/06/16 06:51:51;;;;;;;18.90;16.65;;;23.20;99.90;;;;;;5089483;28;20280;-64
2021/06/16 06:54:19;;;;;;;18.20;16.35;;;23.20;99.90;;;;;;5089380;28;20287;-67
2021/06/16 06:56:47;;;;;;;18.05;16.25;;;23.40;99.90;;;;;;5089140;28;20199;-65
2021/06/16 06:59:15;;;;;;;17.88;16.00;;;23.70;99.90;;;;;;5088863;28;20299;-65
2021/06/16 07:01:43;;;;;;;17.77;15.73;;;23.80;99.90;;;;;;5088694;28;20243;-64
2021/06/16 07:04:12;;;;;;;17.98;16.25;;;23.90;99.90;;;;;;5089512;28;20554;-63
2021/06/16 07:06:40;;;;;;;16.65;14.90;;;23.90;99.90;;;;;;5092787;28;20599;-65
2021/06/16 07:09:08;;;;;;;18.63;16.42;;;23.80;99.90;;;;;;5092753;28;20206;-64
2021/06/16 07:11:36;;;;;;;16.67;14.98;;;23.50;99.90;;;;;;5093101;28;20220;-64
2021/06/16 07:14:04;;;;;;;19.65;17.73;;;23.10;99.90;;;;;;5093191;28;20307;-65
2021/06/16 07:16:31;;;;;;;17.20;15.50;;;22.70;99.90;;;;;;5093009;28;20243;-65
2021/06/16 07:18:59;;;;;;;18.55;16.73;;;22.50;99.90;;;;;;5092796;28;20250;-66
2021/06/16 07:21:29;;;;;;;18.02;16.15;;;22.50;99.90;;;;;;5092540;28;20204;-66
2021/06/16 07:23:57;;;;;;;17.50;15.70;;;22.30;99.90;;;;;;5092722;28;20246;-66
2021/06/16 07:26:25;;;;;;;17.75;16.02;;;22.30;99.90;;;;;;5092871;28;20631;-67
2021/06/16 07:28:53;;;;;;;18.70;16.85;;;22.20;99.90;;;;;;5092311;28;20231;-67
2021/06/16 07:31:21;;;;;;;16.02;14.52;;;22.10;99.90;;;;;;5092763;28;20287;-64
2021/06/16 07:33:48;;;;;;;18.35;16.55;;;22.10;99.90;;;;;;5092252;28;20196;-63
2021/06/16 07:36:16;;;;;;;16.52;14.93;;;22.20;99.90;;;;;;5092293;28;20244;-66
2021/06/16 07:38:45;;;;;;;16.98;15.18;;;22.40;99.90;;;;;;5092243;28;20287;-76
2021/06/16 07:41:13;;;;;;;16.83;15.20;;;22.70;99.90;;;;;;5093983;28;20226;-78
2021/06/16 07:43:41;;;;;;;17.60;15.93;;;23.00;99.90;;;;;;5092939;28;20286;-65
2021/06/16 07:46:09;;;;;;;17.52;15.75;;;23.40;99.90;;;;;;5072165;28;20291;-62
2021/06/16 07:48:37;;;;;;;19.23;16.30;;;23.70;99.90;;;;;;5072197;28;20287;-65
2021/06/16 07:51:05;;;;;;;18.27;15.02;;;23.70;99.90;;;;;;5072211;28;20205;-63
2021/06/16 07:53:33;;;;;;;15.88;14.23;;;23.70;99.90;;;;;;5071609;28;20224;-65
2021/06/16 07:56:03;;;;;;;15.30;13.73;;;23.70;99.90;;;;;;5071620;28;20251;-64
2021/06/16 07:58:31;;;;;;;16.88;15.27;;;23.60;99.90;;;;;;5071848;28;20215;-64
2021/06/16 08:00:58;;;;;;;16.30;14.60;;;23.40;99.90;;;;;;5071244;28;20192;-62
2021/06/16 08:03:27;;;;;;;16.38;14.68;;;23.30;99.90;;;;;;5071084;28;20669;-65
2021/06/16 08:05:55;;;;;;;15.82;14.23;;;23.30;99.90;;;;;;5071962;28;20211;-67
2021/06/16 08:08:32;;;;;;;16.60;14.48;;;23.30;99.90;;;;;;5071748;28;20279;-63
2021/06/16 08:11:01;;;;;;;16.20;14.05;;;23.30;99.90;;;;;;5071621;28;20291;-64
2021/06/16 08:13:31;;;;;;;13.95;12.63;;;23.40;99.90;;;;;;5071472;28;20252;-63
2021/06/16 08:16:00;;;;;;;13.82;12.50;;;23.50;99.90;;;;;;5070290;28;20281;-64
2021/06/16 08:18:28;;;;;;;14.35;12.77;;;23.70;99.90;;;;;;5071037;28;20208;-73
2021/06/16 08:20:56;;;;;;;14.80;13.30;;;23.80;99.90;;;;;;5071021;28;20295;-74
2021/06/16 08:23:24;;;;;;;17.80;13.57;;;23.90;99.90;;;;;;5071339;28;20200;-65
2021/06/16 08:25:52;;;;;;;15.70;12.93;;;23.90;99.90;;;;;;5070868;28;20205;-66
2021/06/16 08:28:20;;;;;;;16.08;13.13;;;23.80;99.90;;;;;;5071110;28;20236;-65
2021/06/16 08:30:49;;;;;;;14.88;13.43;;;23.70;99.90;;;;;;5071053;28;20273;-64
2021/06/16 08:33:17;;;;;;;16.65;13.73;;;23.70;99.90;;;;;;5071094;28;20304;-64
2021/06/16 08:35:45;;;;;;;14.40;12.57;;;23.70;99.90;;;;;;5070195;28;20606;-66
2021/06/16 08:38:12;;;;;;;14.20;12.18;;;23.60;99.90;;;;;;5070624;28;20208;-64
2021/06/16 08:40:40;;;;;;;14.85;12.68;;;23.70;99.90;;;;;;5071152;28;20579;-67
2021/06/16 08:43:08;;;;;;;14.57;12.77;;;23.70;99.90;;;;;;5070707;28;20197;-66
2021/06/16 08:45:38;;;;;;;12.60;11.35;;;23.60;99.90;;;;;;5089164;28;20302;-72
2021/06/16 08:48:09;;;;;;;13.38;11.57;;;23.70;99.90;;;;;;5091427;28;20299;-66
2021/06/16 08:50:38;;;;;;;14.65;13.10;;;23.70;99.90;;;;;;5090725;28;20658;-67
2021/06/16 08:53:06;;;;;;;12.30;11.10;;;23.60;99.90;;;;;;5090948;28;20219;-67
2021/06/16 08:55:34;;;;;;;11.95;10.85;;;23.50;99.90;;;;;;5091124;28;20287;-66
2021/06/16 08:58:02;;;;;;;13.50;12.20;;;23.60;99.90;;;;;;5090908;28;20196;-71
2021/06/16 09:00:30;;;;;;;14.18;12.65;;;23.90;99.90;;;;;;5091252;28;20200;-69
2021/06/16 09:02:57;;;;;;;13.40;12.13;;;23.90;99.90;;;;;;5090793;28;20196;-71
2021/06/16 09:05:38;;;;;;;13.40;11.77;;;23.90;99.90;;;;;;5091081;28;20295;-65
2021/06/16 09:08:24;;;;;;;12.10;10.88;;;24.00;99.90;;;;;;5090867;28;20180;-67
2021/06/16 09:10:54;;;;;;;13.75;12.27;;;24.20;99.90;;;;;;5086925;28;20177;-70
2021/06/16 09:13:31;;;;;;;13.23;11.98;;;24.30;99.90;;;;;;5069858;28;20306;-70
2021/06/16 09:16:00;;;;;;;12.07;10.98;;;24.30;99.90;;;;;;5069841;28;20271;-70
2021/06/16 09:18:42;;;;;;;12.20;10.75;;;24.30;99.90;;;;;;5070179;28;20673;-69
2021/06/16 09:21:11;;;;;;;11.63;10.43;;;24.20;99.90;;;;;;5070072;28;20185;-69
2021/06/16 09:23:42;;;;;;;12.63;11.23;;;24.40;99.90;;;;;;5069791;28;20211;-69
2021/06/16 09:26:12;;;;;;;11.57;10.40;;;24.40;99.90;;;;;;5070267;28;20191;-69
2021/06/16 09:28:41;;;;;;;10.43;9.52;;;24.40;99.90;;;;;;5069414;28;20258;-67
2021/06/16 09:31:10;;;;;;;12.23;11.07;;;24.40;99.90;;;;;;5069675;28;20578;-67
2021/06/16 09:33:39;;;;;;;10.55;9.63;;;24.60;99.90;;;;;;5069721;28;20925;-71
2021/06/16 09:36:13;;;;;;;11.75;10.38;;;24.70;99.90;;;;;;5069835;28;20204;-74
2021/06/16 09:38:44;;;;;;;11.10;10.02;;;24.70;99.90;;;;;;5069847;28;20267;-70
2021/06/16 09:41:14;;;;;;;12.45;11.25;;;24.80;99.90;;;;;;5069575;28;20292;-69
2021/06/16 09:43:42;;;;;;;12.90;10.82;;;24.70;99.90;;;;;;5072315;28;20379;-69
2021/06/16 09:46:12;;;;;;;11.15;10.00;;;24.60;99.90;;;;;;5090174;28;20235;-74
2021/06/16 09:48:43;;;;;;;11.50;10.40;;;24.50;99.90;;;;;;5090421;28;20204;-71
2021/06/16 09:51:15;;;;;;;10.52;9.43;;;24.50;99.90;;;;;;5090071;28;20227;-72
2021/06/16 09:54:01;;;;;;;11.88;10.68;;;24.50;99.90;;;;;;5072457;28;20224;-70
2021/06/16 09:56:32;;;;;;;9.55;8.65;;;24.60;99.90;;;;;;5069837;28;20185;-67
2021/06/16 09:59:01;;;;;;;10.88;9.80;;;24.70;99.90;;;;;;5069370;28;20192;-65
2021/06/16 10:01:47;;;;;;;11.63;10.40;;;24.70;99.90;;;;;;5069555;28;20236;-64
2021/06/16 10:04:31;;;;;;;10.23;9.18;;;24.70;99.90;;;;;;5069337;28;20618;-64
2021/06/16 10:07:12;;;;;;;9.65;8.65;;;24.70;99.90;;;;;;5069464;28;20751;-63
2021/06/16 10:09:46;;;;;;;14.18;10.38;;;24.80;99.90;;;;;;5068588;28;20276;-69
2021/06/16 10:12:16;;;;;;;9.88;8.90;;;24.90;99.90;;;;;;5069479;28;20272;-69
2021/06/16 10:14:44;;;;;;;11.20;10.10;;;25.00;99.90;;;;;;5069554;28;20315;-73
2021/06/16 10:17:14;;;;;;;9.77;8.88;;;25.00;99.90;;;;;;5069280;28;20295;-70
2021/06/16 10:19:43;;;;;;;11.38;9.27;;;25.00;99.90;;;;;;5069257;28;20213;-70
2021/06/16 10:22:12;;;;;;;10.15;9.32;;;25.10;99.90;;;;;;5069512;28;20287;-69
2021/06/16 10:24:40;;;;;;;11.55;9.52;;;25.20;99.90;;;;;;5065993;28;20846;-70
2021/06/16 10:27:14;;;;;;;10.27;9.27;;;25.30;99.90;;;;;;5068426;28;20205;-71
2021/06/16 10:29:45;;;;;;;9.98;9.15;;;25.30;99.90;;;;;;5069211;28;20194;-69
2021/06/16 10:32:13;;;;;;;11.35;9.63;;;25.40;99.90;;;;;;5069313;28;20199;-69
2021/06/16 10:34:58;;;;;;;11.05;9.20;;;25.50;99.90;;;;;;5068957;28;20286;-70
2021/06/16 10:37:30;;;;;;;10.02;9.00;;;25.40;99.90;;;;;;5069096;28;20219;-69
2021/06/16 10:40:27;;;;;;;10.52;9.52;;;25.50;99.90;;;;;;5069559;28;20258;-69
2021/06/16 10:43:28;;;;;;;11.45;10.25;;;25.40;99.90;;;;;;5073192;28;20616;-69
2021/06/16 10:46:12;;;;;;;10.57;9.20;;;25.50;99.90;;;;;;5052993;28;20262;-70
2021/06/16 10:48:59;;;;;;;9.60;8.70;;;25.40;99.90;;;;;;5052937;28;20264;-70
2021/06/16 10:51:29;;;;;;;11.48;10.38;;;25.40;99.90;;;;;;5052892;28;20268;-72
2021/06/16 10:54:28;;;;;;;11.25;9.82;;;25.40;99.90;;;;;;5053222;28;20212;-69
2021/06/16 10:57:10;;;;;;;10.60;9.70;;;25.40;99.90;;;;;;5052634;28;20288;-68
2021/06/16 11:00:10;;;;;;;10.35;9.25;;;25.40;99.90;;;;;;5052894;28;20224;-70
2021/06/16 11:03:03;;;;;;;10.52;9.43;;;25.40;99.90;;;;;;5053020;28;20225;-69
2021/06/16 11:05:45;;;;;;;10.07;9.13;;;25.60;99.90;;;;;;5052922;28;20285;-70
2021/06/16 11:08:53;;;;;;;11.27;10.18;;;25.50;99.90;;;;;;5052715;28;20182;-68
2021/06/16 11:11:24;;;;;;;11.05;9.82;;;25.60;99.90;;;;;;5052615;28;20204;-70
2021/06/16 11:13:52;;;;;;;12.95;9.73;;;25.60;99.90;;;;;;5052438;28;20209;-69
2021/06/16 11:16:54;;;;;;;10.90;9.82;;;25.70;99.90;;;;;;5052663;28;20244;-70
2021/06/16 11:19:28;;;;;;;12.27;9.75;;;25.70;99.90;;;;;;5052493;28;20213;-69
2021/06/16 11:21:58;;;;;;;10.43;9.38;;;25.80;99.90;;;;;;5052349;28;20637;-70
2021/06/16 11:25:05;;;;;;;12.35;9.93;;;25.80;99.90;;;;;;5052170;28;20182;-70
2021/06/16 11:28:22;;;;;;;11.80;9.18;;;25.90;99.90;;;;;;5051895;28;20256;-69
2021/06/16 11:31:06;;;;;;;10.95;9.85;;;26.00;99.90;;;;;;5052252;28;20636;-68
2021/06/16 11:33:44;;;;;;;10.60;8.93;;;26.00;99.90;;;;;;5052405;28;20193;-69
2021/06/16 11:36:19;;;;;;;9.45;8.55;;;26.00;99.90;;;;;;5052215;28;20198;-73
2021/06/16 11:38:55;;;;;;;11.38;8.95;;;26.00;99.90;;;;;;5052410;28;20209;-75
2021/06/16 11:41:25;;;;;;;10.57;9.48;;;26.20;99.90;;;;;;5051781;28;20291;-73
2021/06/16 11:43:56;;;;;;;9.52;8.15;;;26.20;99.90;;;;;;5059379;28;20220;-73
2021/06/16 11:46:27;;;;;;;9.75;8.77;;;26.20;99.90;;;;;;5092483;28;20292;-73
2021/06/16 11:49:05;;;;;;;9.30;8.40;;;26.20;99.90;;;;;;5092454;28;20184;-73
2021/06/16 11:51:39;;;;;;;9.05;8.15;;;26.20;99.90;;;;;;5091976;28;20227;-72
2021/06/16 11:54:22;;;;;;;10.82;8.48;;;26.40;99.90;;;;;;5092226;28;20200;-73
2021/06/16 11:56:55;;;;;;;9.15;8.25;;;26.50;99.90;;;;;;5091974;28;20577;-72
2021/06/16 11:59:35;;;;;;;10.10;9.20;;;26.60;99.90;;;;;;5091944;28;20187;-74
2021/06/16 12:02:09;;;;;;;9.82;8.93;;;26.70;99.90;;;;;;5092277;28;20188;-72
2021/06/16 12:04:53;;;;;;;9.50;8.70;;;26.90;99.90;;;;;;5092092;28;20176;-74
2021/06/16 12:07:26;;;;;;;9.55;8.45;;;27.00;99.90;;;;;;5091697;28;20274;-72
2021/06/16 12:09:55;;;;;;;8.98;8.15;;;27.00;99.90;;;;;;5092172;28;20218;-73
2021/06/16 12:12:23;;;;;;;10.35;9.18;;;27.10;99.90;;;;;;5091930;28;20208;-70
2021/06/16 12:15:06;;;;;;;10.38;9.23;;;27.00;99.90;;;;;;5091533;28;20236;-74
2021/06/16 12:17:53;;;;;;;8.60;7.82;;;26.90;99.90;;;;;;5091584;28;20674;-72
2021/06/16 12:20:21;;;;;;;8.90;8.00;;;26.90;99.90;;;;;;5091669;28;20275;-70
2021/06/16 12:22:49;;;;;;;9.70;8.70;;;26.90;99.90;;;;;;5091417;28;20769;-71
2021/06/16 12:25:51;;;;;;;10.02;9.05;;;26.90;99.90;;;;;;5091702;28;20279;-72
2021/06/16 12:28:26;;;;;;;9.20;8.43;;;26.80;99.90;;;;;;5086803;28;20239;-71
2021/06/16 12:30:56;;;;;;;9.02;8.13;;;26.70;99.90;;;;;;5091722;28;20298;-71
2021/06/16 12:33:37;;;;;;;9.05;8.25;;;26.70;99.90;;;;;;5091453;28;20207;-70
2021/06/16 12:36:07;;;;;;;10.27;8.75;;;26.80;99.90;;;;;;5091196;28;20235;-66
2021/06/16 12:38:57;;;;;;;9.30;8.32;;;26.90;99.90;;;;;;5090760;28;20644;-65
2021/06/16 12:41:32;;;;;;;8.60;7.88;;;27.00;99.90;;;;;;5091030;28;20270;-71
2021/06/16 12:44:16;;;;;;;8.55;7.85;;;27.00;99.90;;;;;;5086062;28;20284;-72
2021/06/16 12:47:00;;;;;;;9.60;8.65;;;27.10;99.90;;;;;;5071170;28;20185;-73
2021/06/16 12:49:31;;;;;;;9.52;8.73;;;27.20;99.90;;;;;;5069074;28;20200;-72
2021/06/16 12:52:01;;;;;;;8.73;7.88;;;27.20;99.90;;;;;;5070911;28;20481;-74